sensor_id;sensor_type;location;lat;lon;timestamp;pressure;altitude;pressure_sealevel;temperature;humidity
62418;BME280;48456;54.242;10.280;2023-05-21T00:01:52;102120.00;;;9.83;100.00
62418;BME280;48456;54.242;10.280;2023-05-21T00:04:18;102121.69;;;9.79;100.00
62418;BME280;48456;54.242;10.280;2023-05-21T00:06:45;102113.75;;;9.78;100.00
62418;BME280;48456;54.242;10.280;2023-05-21T00:09:11;102115.47;;;9.77;100.00
62418;BME280;48456;54.242;10.280;2023-05-21T00:11:38;102118.09;;;9.74;100.00
62418;BME280;48456;54.242;10.280;2023-05-21T00:14:05;102120.66;;;9.71;100.00
62418;BME280;48456;54.242;10.280;2023-05-21T00:16:31;102117.06;;;9.67;100.00
62418;BME280;48456;54.242;10.280;2023-05-21T00:18:58;102109.88;;;9.60;100.00
62418;BME280;48456;54.242;10.280;2023-05-21T00:21:24;102122.09;;;9.55;100.00
62418;BME280;48456;54.242;10.280;2023-05-21T00:23:52;102114.06;;;9.50;100.00
62418;BME280;48456;54.242;10.280;2023-05-21T00:26:21;102107.84;;;9.46;100.00
62418;BME280;48456;54.242;10.280;2023-05-21T00:28:49;102106.03;;;9.45;100.00
62418;BME280;48456;54.242;10.280;2023-05-21T00:31:16;102107.75;;;9.43;100.00
62418;BME280;48456;54.242;10.280;2023-05-21T00:33:42;102111.22;;;9.41;100.00
62418;BME280;48456;54.242;10.280;2023-05-21T00:36:08;102109.41;;;9.38;100.00
62418;BME280;48456;54.242;10.280;2023-05-21T00:38:39;102097.03;;;9.37;100.00
62418;BME280;48456;54.242;10.280;2023-05-21T00:41:09;102104.06;;;9.35;100.00
62418;BME280;48456;54.242;10.280;2023-05-21T00:43:36;102097.03;;;9.35;100.00
62418;BME280;48456;54.242;10.280;2023-05-21T00:46:06;102095.19;;;9.33;100.00
62418;BME280;48456;54.242;10.280;2023-05-21T00:48:32;102098.78;;;9.35;100.00
62418;BME280;48456;54.242;10.280;2023-05-21T00:50:59;102101.38;;;9.33;100.00
62418;BME280;48456;54.242;10.280;2023-05-21T00:53:26;102093.44;;;9.33;100.00
62418;BME280;48456;54.242;10.280;2023-05-21T00:55:52;102096.16;;;9.36;100.00
62418;BME280;48456;54.242;10.280;2023-05-21T00:58:19;102090.88;;;9.36;100.00
62418;BME280;48456;54.242;10.280;2023-05-21T01:00:45;102085.59;;;9.36;100.00
62418;BME280;48456;54.242;10.280;2023-05-21T01:03:12;102092.63;;;9.36;100.00
62418;BME280;48456;54.242;10.280;2023-05-21T01:05:39;102085.53;;;9.33;100.00
62418;BME280;48456;54.242;10.280;2023-05-21T01:08:06;102081.06;;;9.31;100.00
62418;BME280;48456;54.242;10.280;2023-05-21T01:10:32;102083.72;;;9.31;100.00
62418;BME280;48456;54.242;10.280;2023-05-21T01:12:59;102077.56;;;9.32;100.00
62418;BME280;48456;54.242;10.280;2023-05-21T01:15:25;102078.50;;;9.34;100.00
62418;BME280;48456;54.242;10.280;2023-05-21T01:17:52;102079.47;;;9.38;100.00
62418;BME280;48456;54.242;10.280;2023-05-21T01:20:19;102085.72;;;9.43;100.00
62418;BME280;48456;54.242;10.280;2023-05-21T01:22:50;102081.34;;;9.43;100.00
62418;BME280;48456;54.242;10.280;2023-05-21T01:25:16;102071.66;;;9.42;100.00
62418;BME280;48456;54.242;10.280;2023-05-21T01:27:43;102072.50;;;9.43;100.00
62418;BME280;48456;54.242;10.280;2023-05-21T01:30:10;102063.72;;;9.42;100.00
62418;BME280;48456;54.242;10.280;2023-05-21T01:35:25;102067.16;;;9.38;100.00
62418;BME280;48456;54.242;10.280;2023-05-21T01:37:54;102067.16;;;9.38;100.00
62418;BME280;48456;54.242;10.280;2023-05-21T01:43:03;102075.03;;;9.36;100.00
62418;BME280;48456;54.242;10.280;2023-05-21T01:45:31;102072.31;;;9.33;100.00
62418;BME280;48456;54.242;10.280;2023-05-21T01:47:58;102074.94;;;9.32;100.00
62418;BME280;48456;54.242;10.280;2023-05-21T01:50:25;102076.63;;;9.28;100.00
62418;BME280;48456;54.242;10.280;2023-05-21T01:52:53;102068.63;;;9.25;100.00
62418;BME280;48456;54.242;10.280;2023-05-21T01:55:19;102070.38;;;9.23;100.00
62418;BME280;48456;54.242;10.280;2023-05-21T01:57:53;102069.38;;;9.19;100.00
62418;BME280;48456;54.242;10.280;2023-05-21T02:00:20;102076.31;;;9.14;100.00
62418;BME280;48456;54.242;10.280;2023-05-21T02:02:47;102068.31;;;9.09;100.00
62418;BME280;48456;54.242;10.280;2023-05-21T02:05:14;102071.75;;;9.05;100.00
62418;BME280;48456;54.242;10.280;2023-05-21T02:10:08;102068.16;;;9.03;100.00
62418;BME280;48456;54.242;10.280;2023-05-21T02:12:35;102067.25;;;9.03;100.00
62418;BME280;48456;54.242;10.280;2023-05-21T02:15:02;102065.47;;;9.02;100.00
62418;BME280;48456;54.242;10.280;2023-05-21T02:17:29;102065.44;;;9.00;100.00
62418;BME280;48456;54.242;10.280;2023-05-21T02:19:59;102066.31;;;8.99;100.00
62418;BME280;48456;54.242;10.280;2023-05-21T02:22:39;102060.94;;;8.96;100.00
62418;BME280;48456;54.242;10.280;2023-05-21T02:25:06;102059.13;;;8.93;100.00
62418;BME280;48456;54.242;10.280;2023-05-21T02:27:34;102065.31;;;8.94;100.00
62418;BME280;48456;54.242;10.280;2023-05-21T02:30:02;102059.13;;;8.93;100.00
62418;BME280;48456;54.242;10.280;2023-05-21T02:32:29;102049.56;;;8.99;100.00
62418;BME280;48456;54.242;10.280;2023-05-21T02:35:00;102061.97;;;9.01;100.00
62418;BME280;48456;54.242;10.280;2023-05-21T02:37:27;102055.91;;;9.05;100.00
62418;BME280;48456;54.242;10.280;2023-05-21T02:39:53;102055.03;;;9.06;100.00
62418;BME280;48456;54.242;10.280;2023-05-21T02:42:23;102053.25;;;9.05;100.00
62418;BME280;48456;54.242;10.280;2023-05-21T02:44:49;102053.22;;;9.04;100.00
62418;BME280;48456;54.242;10.280;2023-05-21T02:47:19;102049.66;;;9.02;100.00
62418;BME280;48456;54.242;10.280;2023-05-21T02:49:48;102051.41;;;9.01;100.00
62418;BME280;48456;54.242;10.280;2023-05-21T02:52:14;102047.91;;;9.02;100.00
62418;BME280;48456;54.242;10.280;2023-05-21T02:54:43;102042.72;;;9.05;100.00
62418;BME280;48456;54.242;10.280;2023-05-21T02:57:10;102043.69;;;9.10;100.00
62418;BME280;48456;54.242;10.280;2023-05-21T02:59:36;102051.72;;;9.17;100.00
62418;BME280;48456;54.242;10.280;2023-05-21T03:02:03;102039.50;;;9.20;100.00
62418;BME280;48456;54.242;10.280;2023-05-21T03:04:29;102035.13;;;9.22;100.00
62418;BME280;48456;54.242;10.280;2023-05-21T03:06:56;102033.44;;;9.25;100.00
62418;BME280;48456;54.242;10.280;2023-05-21T03:09:22;102032.50;;;9.22;100.00
62418;BME280;48456;54.242;10.280;2023-05-21T03:11:49;102038.66;;;9.21;100.00
62418;BME280;48456;54.242;10.280;2023-05-21T03:14:15;102041.25;;;9.20;100.00
62418;BME280;48456;54.242;10.280;2023-05-21T03:16:42;102037.66;;;9.18;100.00
62418;BME280;48456;54.242;10.280;2023-05-21T03:19:09;102037.66;;;9.16;100.00
62418;BME280;48456;54.242;10.280;2023-05-21T03:21:36;102047.38;;;9.19;100.00
62418;BME280;48456;54.242;10.280;2023-05-21T03:24:03;102041.22;;;9.18;100.00
62418;BME280;48456;54.242;10.280;2023-05-21T03:26:30;102036.88;;;9.20;100.00
62418;BME280;48456;54.242;10.280;2023-05-21T03:28:56;102038.66;;;9.21;100.00
62418;BME280;48456;54.242;10.280;2023-05-21T03:31:23;102031.63;;;9.23;100.00
62418;BME280;48456;54.242;10.280;2023-05-21T03:33:50;102035.25;;;9.27;100.00
62418;BME280;48456;54.242;10.280;2023-05-21T03:36:17;102032.63;;;9.29;100.00
62418;BME280;48456;54.242;10.280;2023-05-21T03:38:44;102032.66;;;9.30;100.00
62418;BME280;48456;54.242;10.280;2023-05-21T03:41:11;102026.53;;;9.33;100.00
62418;BME280;48456;54.242;10.280;2023-05-21T03:43:37;102025.78;;;9.39;100.00
62418;BME280;48456;54.242;10.280;2023-05-21T03:46:03;102026.72;;;9.41;100.00
62418;BME280;48456;54.242;10.280;2023-05-21T03:48:30;102022.41;;;9.46;100.00
62418;BME280;48456;54.242;10.280;2023-05-21T03:50:56;102018.06;;;9.49;100.00
62418;BME280;48456;54.242;10.280;2023-05-21T03:53:23;102020.81;;;9.54;100.00
62418;BME280;48456;54.242;10.280;2023-05-21T03:55:49;102020.03;;;9.60;100.00
62418;BME280;48456;54.242;10.280;2023-05-21T03:58:23;102016.66;;;9.69;100.00
62418;BME280;48456;54.242;10.280;2023-05-21T04:00:49;102023.88;;;9.78;100.00
62418;BME280;48456;54.242;10.280;2023-05-21T04:03:16;102011.72;;;9.86;100.00
62418;BME280;48456;54.242;10.280;2023-05-21T04:05:43;102005.69;;;9.93;100.00
62418;BME280;48456;54.242;10.280;2023-05-21T04:08:10;102007.53;;;9.97;100.00
62418;BME280;48456;54.242;10.280;2023-05-21T04:10:36;102009.34;;;10.01;100.00
62418;BME280;48456;54.242;10.280;2023-05-21T04:13:02;102006.75;;;10.05;100.00
62418;BME280;48456;54.242;10.280;2023-05-21T04:15:29;102005.06;;;10.08;100.00
62418;BME280;48456;54.242;10.280;2023-05-21T04:17:55;102012.19;;;10.12;100.00
62418;BME280;48456;54.242;10.280;2023-05-21T04:20:22;102008.69;;;10.15;100.00
62418;BME280;48456;54.242;10.280;2023-05-21T04:22:48;102008.72;;;10.17;100.00
62418;BME280;48456;54.242;10.280;2023-05-21T04:25:15;102014.03;;;10.18;100.00
62418;BME280;48456;54.242;10.280;2023-05-21T04:27:41;102008.78;;;10.21;100.00
62418;BME280;48456;54.242;10.280;2023-05-21T04:30:08;102009.75;;;10.26;100.00
62418;BME280;48456;54.242;10.280;2023-05-21T04:32:36;102009.81;;;10.30;100.00
62418;BME280;48456;54.242;10.280;2023-05-21T04:35:03;102015.22;;;10.36;100.00
62418;BME280;48456;54.242;10.280;2023-05-21T04:37:30;102003.84;;;10.42;100.00
62418;BME280;48456;54.242;10.280;2023-05-21T04:40:00;102006.63;;;10.49;100.00
62418;BME280;48456;54.242;10.280;2023-05-21T04:42:26;102008.50;;;10.57;100.00
62418;BME280;48456;54.242;10.280;2023-05-21T04:44:53;102013.03;;;10.65;100.00
62418;BME280;48456;54.242;10.280;2023-05-21T04:47:20;102007.88;;;10.75;100.00
62418;BME280;48456;54.242;10.280;2023-05-21T04:49:47;102005.38;;;10.84;100.00
62418;BME280;48456;54.242;10.280;2023-05-21T04:52:13;102009.88;;;10.91;100.00
62418;BME280;48456;54.242;10.280;2023-05-21T04:54:40;102003.88;;;11.03;100.00
62418;BME280;48456;54.242;10.280;2023-05-21T04:57:07;102011.03;;;11.12;100.00
62418;BME280;48456;54.242;10.280;2023-05-21T04:59:33;102013.75;;;11.20;100.00
62418;BME280;48456;54.242;10.280;2023-05-21T05:02:00;102003.25;;;11.26;100.00
62418;BME280;48456;54.242;10.280;2023-05-21T05:04:26;102009.59;;;11.41;100.00
62418;BME280;48456;54.242;10.280;2023-05-21T05:06:52;102005.25;;;11.48;100.00
62418;BME280;48456;54.242;10.280;2023-05-21T05:09:19;102008.84;;;11.54;100.00
62418;BME280;48456;54.242;10.280;2023-05-21T05:11:50;102006.31;;;11.62;100.00
62418;BME280;48456;54.242;10.280;2023-05-21T05:14:16;102005.44;;;11.65;100.00
62418;BME280;48456;54.242;10.280;2023-05-21T05:16:43;101996.63;;;11.67;100.00
62418;BME280;48456;54.242;10.280;2023-05-21T05:19:09;102006.38;;;11.68;100.00
62418;BME280;48456;54.242;10.280;2023-05-21T05:21:35;101994.00;;;11.69;100.00
62418;BME280;48456;54.242;10.280;2023-05-21T05:24:03;101990.50;;;11.72;100.00
62418;BME280;48456;54.242;10.280;2023-05-21T05:26:29;101990.53;;;11.78;100.00
62418;BME280;48456;54.242;10.280;2023-05-21T05:28:55;101992.44;;;11.90;100.00
62418;BME280;48456;54.242;10.280;2023-05-21T05:31:22;101984.63;;;12.04;100.00
62418;BME280;48456;54.242;10.280;2023-05-21T05:33:48;101979.47;;;12.19;100.00
62418;BME280;48456;54.242;10.280;2023-05-21T05:36:15;101978.72;;;12.38;100.00
62418;BME280;48456;54.242;10.280;2023-05-21T05:38:41;101983.22;;;12.50;100.00
62418;BME280;48456;54.242;10.280;2023-05-21T05:41:08;101976.16;;;12.50;100.00
62418;BME280;48456;54.242;10.280;2023-05-21T05:43:34;101975.28;;;12.54;100.00
62418;BME280;48456;54.242;10.280;2023-05-21T05:46:00;101982.38;;;12.55;100.00
62418;BME280;48456;54.242;10.280;2023-05-21T05:48:27;101977.97;;;12.60;100.00
62418;BME280;48456;54.242;10.280;2023-05-21T05:50:53;101975.38;;;12.68;100.00
62418;BME280;48456;54.242;10.280;2023-05-21T05:53:21;101974.53;;;12.77;100.00
62418;BME280;48456;54.242;10.280;2023-05-21T05:55:47;101969.28;;;12.90;100.00
62418;BME280;48456;54.242;10.280;2023-05-21T05:58:14;101968.44;;;12.98;100.00
62418;BME280;48456;54.242;10.280;2023-05-21T06:00:40;101968.50;;;13.12;100.00
62418;BME280;48456;54.242;10.280;2023-05-21T06:03:07;101964.13;;;13.30;100.00
62418;BME280;48456;54.242;10.280;2023-05-21T06:05:33;101957.06;;;13.45;100.00
62418;BME280;48456;54.242;10.280;2023-05-21T06:08:00;101957.97;;;13.45;100.00
62418;BME280;48456;54.242;10.280;2023-05-21T06:10:26;101953.59;;;13.54;100.00
62418;BME280;48456;54.242;10.280;2023-05-21T06:12:53;101968.66;;;13.66;100.00
62418;BME280;48456;54.242;10.280;2023-05-21T06:15:19;101964.22;;;13.69;100.00
62418;BME280;48456;54.242;10.280;2023-05-21T06:17:46;101966.91;;;13.77;100.00
62418;BME280;48456;54.242;10.280;2023-05-21T06:20:12;101962.47;;;13.77;100.00
62418;BME280;48456;54.242;10.280;2023-05-21T06:22:39;101972.22;;;13.82;100.00
62418;BME280;48456;54.242;10.280;2023-05-21T06:25:05;101966.94;;;13.91;100.00
62418;BME280;48456;54.242;10.280;2023-05-21T06:27:32;101963.38;;;13.89;100.00
62418;BME280;48456;54.242;10.280;2023-05-21T06:29:58;101967.81;;;14.02;100.00
62418;BME280;48456;54.242;10.280;2023-05-21T06:32:25;101959.81;;;14.15;100.00
62418;BME280;48456;54.242;10.280;2023-05-21T06:34:51;101966.03;;;14.22;100.00
62418;BME280;48456;54.242;10.280;2023-05-21T06:37:18;101966.91;;;14.25;100.00
62418;BME280;48456;54.242;10.280;2023-05-21T06:39:46;101964.25;;;14.32;100.00
62418;BME280;48456;54.242;10.280;2023-05-21T06:42:12;101972.22;;;14.38;100.00
62418;BME280;48456;54.242;10.280;2023-05-21T06:44:38;101966.91;;;14.38;100.00
62418;BME280;48456;54.242;10.280;2023-05-21T06:47:05;101968.66;;;14.47;100.00
62418;BME280;48456;54.242;10.280;2023-05-21T06:49:31;101967.75;;;14.52;100.00
62418;BME280;48456;54.242;10.280;2023-05-21T06:51:58;101970.41;;;14.65;100.00
62418;BME280;48456;54.242;10.280;2023-05-21T06:54:24;101965.03;;;14.71;100.00
62418;BME280;48456;54.242;10.280;2023-05-21T06:56:52;101964.16;;;14.81;100.00
62418;BME280;48456;54.242;10.280;2023-05-21T06:59:18;101961.47;;;14.92;100.00
62418;BME280;48456;54.242;10.280;2023-05-21T07:01:45;101964.06;;;15.08;100.00
62418;BME280;48456;54.242;10.280;2023-05-21T07:04:11;101959.56;;;15.18;100.00
62418;BME280;48456;54.242;10.280;2023-05-21T07:06:38;101964.81;;;15.33;100.00
62418;BME280;48456;54.242;10.280;2023-05-21T07:09:04;101948.75;;;15.48;100.00
62418;BME280;48456;54.242;10.280;2023-05-21T07:11:31;101954.00;;;15.57;100.00
62418;BME280;48456;54.242;10.280;2023-05-21T07:13:58;101947.75;;;15.64;100.00
62418;BME280;48456;54.242;10.280;2023-05-21T07:16:28;101948.59;;;15.69;100.00
62418;BME280;48456;54.242;10.280;2023-05-21T07:18:55;101944.19;;;15.62;100.00
62418;BME280;48456;54.242;10.280;2023-05-21T07:21:21;101948.56;;;15.72;100.00
62418;BME280;48456;54.242;10.280;2023-05-21T07:23:48;101947.56;;;15.89;100.00
62418;BME280;48456;54.242;10.280;2023-05-21T07:26:14;101949.16;;;16.10;100.00
62418;BME280;48456;54.242;10.280;2023-05-21T07:28:41;101948.91;;;16.39;100.00
62418;BME280;48456;54.242;10.280;2023-05-21T07:31:08;101936.84;;;16.80;100.00
62418;BME280;48456;54.242;10.280;2023-05-21T07:33:37;101947.03;;;17.24;100.00
62418;BME280;48456;54.242;10.280;2023-05-21T07:36:04;101944.19;;;17.36;100.00
62418;BME280;48456;54.242;10.280;2023-05-21T07:38:30;101939.34;;;17.60;100.00
62418;BME280;48456;54.242;10.280;2023-05-21T07:40:57;101947.56;;;17.48;100.00
62418;BME280;48456;54.242;10.280;2023-05-21T07:43:23;101939.00;;;17.25;100.00
62418;BME280;48456;54.242;10.280;2023-05-21T07:45:49;101942.78;;;17.09;100.00
62418;BME280;48456;54.242;10.280;2023-05-21T07:48:16;101938.25;;;17.14;100.00
62418;BME280;48456;54.242;10.280;2023-05-21T07:50:43;101945.28;;;17.21;100.00
62418;BME280;48456;54.242;10.280;2023-05-21T07:53:10;101941.53;;;17.35;100.00
62418;BME280;48456;54.242;10.280;2023-05-21T07:55:36;101935.63;;;17.72;100.00
62418;BME280;48456;54.242;10.280;2023-05-21T07:58:03;101931.88;;;17.83;100.00
62418;BME280;48456;54.242;10.280;2023-05-21T08:00:29;101952.97;;;18.01;100.00
62418;BME280;48456;54.242;10.280;2023-05-21T08:03:07;101946.00;;;17.91;100.00
62418;BME280;48456;54.242;10.280;2023-05-21T08:05:33;101943.66;;;17.72;100.00
62418;BME280;48456;54.242;10.280;2023-05-21T08:08:00;101939.53;;;17.49;100.00
62418;BME280;48456;54.242;10.280;2023-05-21T08:10:26;101932.38;;;17.51;100.00
62418;BME280;48456;54.242;10.280;2023-05-21T08:12:53;101939.31;;;17.63;100.00
62418;BME280;48456;54.242;10.280;2023-05-21T08:15:19;101940.91;;;17.74;100.00
62418;BME280;48456;54.242;10.280;2023-05-21T08:17:46;101936.34;;;17.80;100.00
62418;BME280;48456;54.242;10.280;2023-05-21T08:20:13;101936.25;;;17.88;100.00
62418;BME280;48456;54.242;10.280;2023-05-21T08:22:39;101936.34;;;17.80;100.00
62418;BME280;48456;54.242;10.280;2023-05-21T08:25:06;101932.41;;;17.50;100.00
62418;BME280;48456;54.242;10.280;2023-05-21T08:27:33;101937.53;;;17.64;100.00
62418;BME280;48456;54.242;10.280;2023-05-21T08:30:00;101940.97;;;17.72;100.00
62418;BME280;48456;54.242;10.280;2023-05-21T08:32:27;101936.44;;;17.76;100.00
62418;BME280;48456;54.242;10.280;2023-05-21T08:34:53;101938.41;;;17.63;100.00
62418;BME280;48456;54.242;10.280;2023-05-21T08:37:20;101939.34;;;17.62;100.00
62418;BME280;48456;54.242;10.280;2023-05-21T08:39:49;101943.78;;;17.63;100.00
62418;BME280;48456;54.242;10.280;2023-05-21T08:45:12;101931.81;;;17.86;100.00
62418;BME280;48456;54.242;10.280;2023-05-21T08:47:42;101941.78;;;17.77;100.00
62418;BME280;48456;54.242;10.280;2023-05-21T08:50:10;101933.25;;;18.09;100.00
62418;BME280;48456;54.242;10.280;2023-05-21T08:52:36;101930.41;;;18.18;100.00
62418;BME280;48456;54.242;10.280;2023-05-21T08:55:03;101934.59;;;18.31;100.00
62418;BME280;48456;54.242;10.280;2023-05-21T08:57:30;101926.81;;;18.19;100.00
62418;BME280;48456;54.242;10.280;2023-05-21T08:59:57;101931.81;;;18.38;100.00
62418;BME280;48456;54.242;10.280;2023-05-21T09:02:23;101936.41;;;18.31;100.00
62418;BME280;48456;54.242;10.280;2023-05-21T09:04:52;101929.00;;;18.46;100.00
62418;BME280;48456;54.242;10.280;2023-05-21T09:07:25;101931.16;;;18.72;100.00
62418;BME280;48456;54.242;10.280;2023-05-21T09:09:54;101930.19;;;18.75;100.00
62418;BME280;48456;54.242;10.280;2023-05-21T09:12:22;101927.91;;;19.00;100.00
62418;BME280;48456;54.242;10.280;2023-05-21T09:14:49;101924.28;;;19.01;100.00
62418;BME280;48456;54.242;10.280;2023-05-21T09:17:16;101923.09;;;19.16;100.00
62418;BME280;48456;54.242;10.280;2023-05-21T09:22:27;101920.28;;;19.21;100.00
62418;BME280;48456;54.242;10.280;2023-05-21T09:24:54;101917.56;;;19.24;100.00
62418;BME280;48456;54.242;10.280;2023-05-21T09:27:20;101916.72;;;19.22;100.00
62418;BME280;48456;54.242;10.280;2023-05-21T09:29:47;101916.03;;;19.12;100.00
62418;BME280;48456;54.242;10.280;2023-05-21T09:32:13;101914.47;;;19.43;100.00
62418;BME280;48456;54.242;10.280;2023-05-21T09:34:40;101913.09;;;19.61;100.00
62418;BME280;48456;54.242;10.280;2023-05-21T09:37:06;101911.00;;;19.74;100.00
62418;BME280;48456;54.242;10.280;2023-05-21T09:39:48;101907.91;;;19.55;100.00
62418;BME280;48456;54.242;10.280;2023-05-21T09:42:14;101912.56;;;19.46;100.00
62418;BME280;48456;54.242;10.280;2023-05-21T09:44:44;101913.25;;;19.55;100.00
62418;BME280;48456;54.242;10.280;2023-05-21T09:47:10;101917.38;;;19.70;100.00
62418;BME280;48456;54.242;10.280;2023-05-21T09:49:37;101918.69;;;19.90;100.00
62418;BME280;48456;54.242;10.280;2023-05-21T09:52:03;101915.00;;;19.94;100.00
62418;BME280;48456;54.242;10.280;2023-05-21T09:54:30;101916.59;;;20.01;100.00
62418;BME280;48456;54.242;10.280;2023-05-21T09:56:58;101915.41;;;20.13;100.00
62418;BME280;48456;54.242;10.280;2023-05-21T09:59:34;101921.88;;;20.39;100.00
62418;BME280;48456;54.242;10.280;2023-05-21T10:02:00;101924.41;;;20.44;100.00
62418;BME280;48456;54.242;10.280;2023-05-21T10:04:27;101929.06;;;20.70;100.00
62418;BME280;48456;54.242;10.280;2023-05-21T10:06:55;101932.38;;;20.80;100.00
62418;BME280;48456;54.242;10.280;2023-05-21T10:09:24;101931.19;;;20.90;100.00
62418;BME280;48456;54.242;10.280;2023-05-21T10:11:52;101930.16;;;20.95;100.00
62418;BME280;48456;54.242;10.280;2023-05-21T10:14:19;101929.19;;;20.97;100.00
62418;BME280;48456;54.242;10.280;2023-05-21T10:16:47;101926.78;;;20.86;100.00
62418;BME280;48456;54.242;10.280;2023-05-21T10:19:15;101923.94;;;20.61;100.00
62418;BME280;48456;54.242;10.280;2023-05-21T10:21:42;101912.50;;;20.54;100.00
62418;BME280;48456;54.242;10.280;2023-05-21T10:24:08;101917.94;;;20.83;100.00
62418;BME280;48456;54.242;10.280;2023-05-21T10:26:35;101909.28;;;20.41;100.00
62418;BME280;48456;54.242;10.280;2023-05-21T10:29:03;101907.59;;;20.69;100.00
62418;BME280;48456;54.242;10.280;2023-05-21T10:31:29;101896.41;;;20.52;100.00
62418;BME280;48456;54.242;10.280;2023-05-21T10:33:56;101903.16;;;20.68;100.00
62418;BME280;48456;54.242;10.280;2023-05-21T10:36:23;101905.09;;;20.31;100.00
62418;BME280;48456;54.242;10.280;2023-05-21T10:38:53;101898.75;;;20.33;100.00
62418;BME280;48456;54.242;10.280;2023-05-21T10:41:20;101904.69;;;20.45;100.00
62418;BME280;48456;54.242;10.280;2023-05-21T10:59:45;101888.47;;;21.65;100.00
62418;BME280;48456;54.242;10.280;2023-05-21T11:02:13;101893.16;;;22.13;100.00
62418;BME280;48456;54.242;10.280;2023-05-21T11:04:40;101885.72;;;22.45;100.00
62418;BME280;48456;54.242;10.280;2023-05-21T11:07:11;101883.28;;;22.63;100.00
62418;BME280;48456;54.242;10.280;2023-05-21T11:09:37;101889.09;;;22.76;100.00
62418;BME280;48456;54.242;10.280;2023-05-21T11:12:04;101884.25;;;23.08;100.00
62418;BME280;48456;54.242;10.280;2023-05-21T11:14:34;101880.69;;;23.52;100.00
62418;BME280;48456;54.242;10.280;2023-05-21T11:17:02;101874.13;;;23.80;100.00
62418;BME280;48456;54.242;10.280;2023-05-21T11:19:33;101872.94;;;24.07;100.00
62418;BME280;48456;54.242;10.280;2023-05-21T11:22:01;101874.56;;;24.32;100.00
62418;BME280;48456;54.242;10.280;2023-05-21T11:24:30;101872.38;;;24.21;100.00
62418;BME280;48456;54.242;10.280;2023-05-21T11:26:58;101866.03;;;24.41;100.00
62418;BME280;48456;54.242;10.280;2023-05-21T11:29:30;101865.41;;;24.74;100.00
62418;BME280;48456;54.242;10.280;2023-05-21T11:32:00;101871.78;;;24.73;100.00
62418;BME280;48456;54.242;10.280;2023-05-21T11:34:35;101872.66;;;24.74;100.00
62418;BME280;48456;54.242;10.280;2023-05-21T11:39:52;101861.72;;;23.54;100.00
62418;BME280;48456;54.242;10.280;2023-05-21T11:42:26;101859.16;;;23.06;100.00
62418;BME280;48456;54.242;10.280;2023-05-21T11:44:55;101867.16;;;22.85;100.00
62418;BME280;48456;54.242;10.280;2023-05-21T11:47:22;101866.06;;;22.67;100.00
62418;BME280;48456;54.242;10.280;2023-05-21T11:49:48;101875.16;;;22.64;100.00
62418;BME280;48456;54.242;10.280;2023-05-21T11:52:14;101872.56;;;22.61;100.00
62418;BME280;48456;54.242;10.280;2023-05-21T11:54:42;101865.09;;;22.68;100.00
62418;BME280;48456;54.242;10.280;2023-05-21T11:57:11;101860.06;;;22.58;100.00
62418;BME280;48456;54.242;10.280;2023-05-21T11:59:41;101861.59;;;22.66;100.00
62418;BME280;48456;54.242;10.280;2023-05-21T12:02:08;101861.41;;;22.70;100.00
62418;BME280;48456;54.242;10.280;2023-05-21T12:04:35;101858.59;;;23.20;100.00
62418;BME280;48456;54.242;10.280;2023-05-21T12:07:05;101861.16;;;23.45;100.00
62418;BME280;48456;54.242;10.280;2023-05-21T12:09:38;101845.88;;;23.67;100.00
62418;BME280;48456;54.242;10.280;2023-05-21T12:12:04;101853.28;;;23.61;100.00
62418;BME280;48456;54.242;10.280;2023-05-21T12:14:31;101851.63;;;23.80;100.00
62418;BME280;48456;54.242;10.280;2023-05-21T12:16:58;101850.66;;;23.81;100.00
62418;BME280;48456;54.242;10.280;2023-05-21T12:19:25;101848.56;;;24.08;100.00
62418;BME280;48456;54.242;10.280;2023-05-21T12:21:52;101856.16;;;24.21;100.00
62418;BME280;48456;54.242;10.280;2023-05-21T12:24:18;101838.41;;;24.53;100.00
62418;BME280;48456;54.242;10.280;2023-05-21T12:26:44;101841.88;;;24.57;100.00
62418;BME280;48456;54.242;10.280;2023-05-21T12:29:11;101844.66;;;24.94;100.00
62418;BME280;48456;54.242;10.280;2023-05-21T12:31:47;101842.66;;;25.17;100.00
62418;BME280;48456;54.242;10.280;2023-05-21T12:34:15;101829.06;;;24.99;100.00
62418;BME280;48456;54.242;10.280;2023-05-21T12:36:43;101836.56;;;25.49;100.00
62418;BME280;48456;54.242;10.280;2023-05-21T12:39:16;101834.75;;;25.67;100.00
62418;BME280;48456;54.242;10.280;2023-05-21T12:41:43;101845.75;;;25.81;100.00
62418;BME280;48456;54.242;10.280;2023-05-21T12:44:10;101843.91;;;25.82;100.00
62418;BME280;48456;54.242;10.280;2023-05-21T12:46:36;101842.16;;;25.99;100.00
62418;BME280;48456;54.242;10.280;2023-05-21T12:49:03;101841.88;;;26.21;100.00
62418;BME280;48456;54.242;10.280;2023-05-21T12:51:37;101837.84;;;26.46;100.00
62418;BME280;48456;54.242;10.280;2023-05-21T12:54:10;101834.44;;;26.25;100.00
62418;BME280;48456;54.242;10.280;2023-05-21T12:56:43;101829.50;;;26.33;100.00
62418;BME280;48456;54.242;10.280;2023-05-21T12:59:13;101833.19;;;26.64;100.00
62418;BME280;48456;54.242;10.280;2023-05-21T13:01:46;101835.75;;;26.51;100.00
62418;BME280;48456;54.242;10.280;2023-05-21T13:04:12;101831.91;;;26.55;100.00
62418;BME280;48456;54.242;10.280;2023-05-21T13:06:42;101832.25;;;26.81;100.00